Time;durP1;ratioP1;P1;durP2;ratioP2;P2;SDS_P1;SDS_P2;PMS_P1;PMS_P2;Temp;Humidity;BMP_temperature;BMP_pressure;BME280_temperature;BME280_humidity;BME280_pressure;Samples;Min_cycle;Max_cycle;Signal;HPM_P1;HPM_P2
2021/06/23 00:00:00;;;;;;;3.38;3.05;;;;;;;18.36;58.91;101236.00;695977;28;21554;-61
2021/06/23 00:00:22;;;;;;;4.60;3.22;;;;;;;18.35;58.67;101231.59;697421;28;45267;-59
2021/06/23 00:00:44;;;;;;;3.38;3.03;;;;;;;18.36;58.76;101230.53;698253;28;46522;-62
2021/06/23 00:01:05;;;;;;;4.70;2.95;;;;;;;18.36;58.92;101226.97;701621;28;22409;-61
2021/06/23 00:01:27;;;;;;;4.72;2.90;;;;;;;18.34;58.67;101237.28;701726;28;23470;-59
2021/06/23 00:01:48;;;;;;;4.90;3.22;;;;;;;18.34;58.77;101231.81;699706;28;69506;-60
2021/06/23 00:02:09;;;;;;;3.85;3.33;;;;;;;18.33;59.07;101230.97;700773;28;46603;-61
2021/06/23 00:02:30;;;;;;;4.63;3.22;;;;;;;18.32;58.80;101226.56;701976;28;22461;-62
2021/06/23 00:02:52;;;;;;;5.10;3.40;;;;;;;18.33;58.82;101232.88;701877;28;22426;-61
2021/06/23 00:03:14;;;;;;;4.32;3.22;;;;;;;18.31;58.94;101235.00;701950;28;19204;-62
2021/06/23 00:03:35;;;;;;;4.05;3.25;;;;;;;18.30;58.71;101234.13;699913;28;46346;-59
2021/06/23 00:03:56;;;;;;;3.92;3.03;;;;;;;18.29;58.82;101237.94;701176;28;22344;-59
2021/06/23 00:04:17;;;;;;;3.50;3.20;;;;;;;18.27;58.90;101231.81;702406;28;5122;-60
2021/06/23 00:04:38;;;;;;;3.65;3.35;;;;;;;18.26;58.97;101235.63;702765;28;916;-61
2021/06/23 00:05:01;;;;;;;3.20;2.90;;;;;;;18.25;59.14;101235.84;701934;28;22389;-60
2021/06/23 00:05:23;;;;;;;4.45;3.22;;;;;;;18.22;59.20;101230.81;698939;28;69426;-61
2021/06/23 00:05:44;;;;;;;5.07;3.38;;;;;;;18.17;59.01;101235.03;701029;28;33642;-61
2021/06/23 00:06:05;;;;;;;3.63;3.30;;;;;;;18.17;59.30;101236.94;701496;28;16087;-60
2021/06/23 00:06:29;;;;;;;3.40;3.10;;;;;;;18.16;59.30;101233.34;701713;28;22425;-61
2021/06/23 00:06:50;;;;;;;3.83;3.25;;;;;;;18.15;59.39;101233.53;698178;28;90360;-62
2021/06/23 00:07:11;;;;;;;4.38;3.35;;;;;;;18.14;59.43;101229.97;699564;28;23432;-61
2021/06/23 00:07:32;;;;;;;5.55;3.15;;;;;;;18.15;59.56;101236.28;701861;28;21531;-61
2021/06/23 00:07:54;;;;;;;4.35;3.10;;;;;;;18.16;59.65;101229.78;698517;28;22392;-61
2021/06/23 00:08:15;;;;;;;3.80;3.13;;;;;;;18.18;59.56;101227.66;698092;28;44397;-60
2021/06/23 00:08:37;;;;;;;3.38;3.08;;;;;;;18.19;59.28;101229.34;698739;28;23044;-60
2021/06/23 00:08:58;;;;;;;3.45;3.08;;;;;;;18.21;59.61;101226.38;698704;28;23921;-61
2021/06/23 00:09:20;;;;;;;3.50;3.20;;;;;;;18.21;59.45;101232.69;698429;28;22409;-61
2021/06/23 00:09:41;;;;;;;3.83;3.33;;;;;;;18.21;59.36;101224.47;696905;28;1007;-61
2021/06/23 00:10:03;;;;;;;3.28;2.97;;;;;;;18.23;59.49;101232.47;699111;28;22407;-61
2021/06/23 00:10:24;;;;;;;3.25;2.95;;;;;;;18.24;59.48;101229.53;699088;28;24740;-61
2021/06/23 00:10:46;;;;;;;4.20;3.35;;;;;;;18.24;59.26;101226.78;698382;28;23414;-61
2021/06/23 00:11:08;;;;;;;3.30;3.08;;;;;;;18.23;59.33;101227.88;697310;28;67480;-61
2021/06/23 00:11:31;;;;;;;3.72;3.10;;;;;;;18.23;59.38;101227.00;698617;28;44376;-60
2021/06/23 00:11:52;;;;;;;3.72;3.13;;;;;;;18.22;59.24;101230.81;701126;28;46336;-60
2021/06/23 00:12:16;;;;;;;3.30;3.00;;;;;;;18.20;59.44;101233.75;700909;28;43857;-60
2021/06/23 00:12:37;;;;;;;3.13;2.90;;;;;;;18.19;59.19;101234.81;700243;28;70139;-60
2021/06/23 00:13:04;;;;;;;4.03;3.20;;;;;;;18.18;59.00;101233.13;701850;28;22374;-60
2021/06/23 00:13:27;;;;;;;3.38;3.08;;;;;;;18.17;59.16;101235.03;700562;28;61819;-61
2021/06/23 00:13:49;;;;;;;3.00;2.80;;;;;;;18.18;59.35;101236.72;699370;28;90754;-61
2021/06/23 00:14:10;;;;;;;3.17;2.97;;;;;;;18.16;59.48;101238.78;700988;28;43632;-61
2021/06/23 00:14:33;;;;;;;3.50;3.20;;;;;;;18.15;59.39;101239.88;702781;28;1063;-60
2021/06/23 00:14:54;;;;;;;3.25;2.95;;;;;;;18.14;59.48;101242.81;699977;28;44385;-61
2021/06/23 00:15:17;;;;;;;3.17;2.88;;;;;;;18.11;59.43;101246.81;702071;28;24415;-61
2021/06/23 00:15:38;;;;;;;3.40;2.90;;;;;;;18.08;59.56;101236.31;699368;28;91215;-60
2021/06/23 00:16:00;;;;;;;4.78;2.80;;;;;;;18.08;59.30;101246.41;701782;28;22382;-61
2021/06/23 00:16:22;;;;;;;5.68;3.03;;;;;;;18.05;59.44;101250.41;701236;28;45330;-61
2021/06/23 00:16:44;;;;;;;3.33;3.03;;;;;;;18.04;59.67;101242.41;700141;28;39848;-61
2021/06/23 00:17:05;;;;;;;3.28;3.00;;;;;;;18.04;59.74;101253.34;701109;28;39989;-61
2021/06/23 00:17:28;;;;;;;3.50;3.20;;;;;;;18.03;59.54;101244.31;701681;28;22342;-61
2021/06/23 00:17:49;;;;;;;3.38;3.05;;;;;;;18.04;59.60;101253.34;696427;28;67675;-62
2021/06/23 00:18:11;;;;;;;3.58;3.13;;;;;;;18.02;59.47;101250.84;699634;28;1095;-61
2021/06/23 00:18:32;;;;;;;3.30;3.00;;;;;;;18.01;59.85;101251.91;697547;28;46360;-60
2021/06/23 00:18:53;;;;;;;4.03;3.15;;;;;;;18.00;59.53;101251.03;698597;28;19782;-61
2021/06/23 00:19:14;;;;;;;3.72;3.47;;;;;;;17.99;59.59;101246.66;698713;28;11605;-61
2021/06/23 00:19:36;;;;;;;3.70;3.40;;;;;;;17.97;59.83;101251.47;698396;28;23510;-61
2021/06/23 00:19:57;;;;;;;3.90;3.40;;;;;;;17.95;59.81;101250.84;698497;28;45248;-60
2021/06/23 00:20:18;;;;;;;4.15;3.53;;;;;;;17.93;59.92;101246.66;698194;28;22401;-61
2021/06/23 00:20:40;;;;;;;3.78;3.35;;;;;;;17.91;59.82;101246.84;698023;28;23468;-61
2021/06/23 00:21:02;;;;;;;3.72;3.05;;;;;;;17.91;59.95;101244.13;697977;28;45283;-61
2021/06/23 00:21:23;;;;;;;5.13;3.25;;;;;;;17.91;60.19;101241.41;698135;28;41931;-62
2021/06/23 00:21:45;;;;;;;3.72;3.30;;;;;;;17.90;60.31;101247.94;699069;28;20895;-61
2021/06/23 00:22:06;;;;;;;3.60;3.30;;;;;;;17.90;60.09;101242.47;698304;28;45272;-61
2021/06/23 00:22:27;;;;;;;3.97;3.58;;;;;;;17.91;60.26;101244.13;698699;28;24293;-61
2021/06/23 00:22:49;;;;;;;4.22;3.72;;;;;;;17.91;60.05;101232.38;700125;28;1017;-60
2021/06/23 00:23:11;;;;;;;3.80;3.42;;;;;;;17.92;60.21;101232.16;698216;28;46326;-61
2021/06/23 00:23:32;;;;;;;3.55;3.25;;;;;;;17.94;60.01;101234.66;699061;28;21316;-61
2021/06/23 00:23:54;;;;;;;3.58;3.28;;;;;;;17.94;60.26;101237.41;698822;28;23445;-61
2021/06/23 00:24:15;;;;;;;3.90;3.30;;;;;;;17.94;60.09;101232.78;698206;28;44192;-59
2021/06/23 00:24:36;;;;;;;3.67;3.30;;;;;;;17.95;60.08;101237.19;699530;28;14269;-60
2021/06/23 00:24:57;;;;;;;4.27;3.13;;;;;;;17.96;59.79;101238.88;698812;28;33669;-61
2021/06/23 00:25:19;;;;;;;6.33;3.20;;;;;;;17.94;59.81;101232.78;697653;28;46330;-62
2021/06/23 00:25:42;;;;;;;5.35;3.53;;;;;;;17.94;60.17;101238.22;699162;28;15012;-60
2021/06/23 00:26:03;;;;;;;3.65;3.05;;;;;;;17.95;60.04;101236.38;699968;28;926;-61
2021/06/23 00:26:24;;;;;;;3.78;3.13;;;;;;;17.95;60.03;101230.91;698939;28;22486;-62
2021/06/23 00:26:46;;;;;;;3.60;3.30;;;;;;;17.94;59.98;101231.94;699482;28;17150;-61
2021/06/23 00:27:07;;;;;;;3.47;3.28;;;;;;;17.93;59.98;101231.09;698370;28;45926;-62
2021/06/23 00:27:29;;;;;;;3.35;3.15;;;;;;;17.94;59.75;101238.22;697403;28;46408;-62
2021/06/23 00:27:50;;;;;;;4.13;3.30;;;;;;;17.93;59.82;101231.09;699299;28;23619;-61
2021/06/23 00:28:12;;;;;;;4.85;3.30;;;;;;;17.91;59.70;101241.41;699772;28;23398;-61
2021/06/23 00:28:33;;;;;;;3.85;3.20;;;;;;;17.91;59.63;101229.63;699014;28;44397;-62
2021/06/23 00:28:54;;;;;;;3.30;3.10;;;;;;;17.91;59.98;101235.09;698759;28;21580;-61
2021/06/23 00:29:15;;;;;;;3.40;3.15;;;;;;;17.91;59.94;101241.41;699112;28;22379;-61
2021/06/23 00:29:36;;;;;;;3.67;3.38;;;;;;;17.91;59.93;101232.38;698925;28;22473;-61
2021/06/23 00:29:57;;;;;;;3.60;3.30;;;;;;;17.91;59.83;101238.66;699522;28;23349;-59
2021/06/23 00:30:20;;;;;;;3.65;3.35;;;;;;;17.91;60.04;101232.38;698950;28;23528;-61
2021/06/23 00:30:41;;;;;;;3.63;3.28;;;;;;;17.92;59.71;101231.31;697967;28;68443;-62
2021/06/23 00:31:02;;;;;;;4.78;3.40;;;;;;;17.92;59.78;101243.09;698988;28;23396;-61
2021/06/23 00:31:23;;;;;;;4.35;3.33;;;;;;;17.90;59.95;101239.72;698894;28;23369;-61
2021/06/23 00:31:45;;;;;;;3.50;3.15;;;;;;;17.91;60.02;101240.56;699631;28;22417;-61
2021/06/23 00:32:08;;;;;;;4.22;3.20;;;;;;;17.91;59.72;101243.28;698807;28;46221;-62
2021/06/23 00:32:29;;;;;;;3.63;3.33;;;;;;;17.91;59.88;101235.94;698804;28;42033;-60
2021/06/23 00:32:52;;;;;;;3.88;3.58;;;;;;;17.91;59.63;101238.66;699712;28;22402;-61
2021/06/23 00:33:17;;;;;;;3.10;2.90;;;;;;;17.91;59.86;101235.94;697737;28;68301;-61
2021/06/23 00:33:38;;;;;;;3.38;3.10;;;;;;;17.90;60.00;101241.59;696317;28;115161;-60
2021/06/23 00:34:01;;;;;;;3.60;3.30;;;;;;;17.90;59.62;101241.59;698869;28;22378;-61
2021/06/23 00:34:23;;;;;;;3.55;3.00;;;;;;;17.90;59.94;101242.47;697441;28;69924;-62
2021/06/23 00:34:45;;;;;;;3.70;3.03;;;;;;;17.89;59.92;101246.25;697493;28;69465;-61
2021/06/23 00:35:09;;;;;;;3.05;2.75;;;;;;;17.87;59.91;101244.72;698311;28;17912;-61
2021/06/23 00:35:30;;;;;;;3.60;2.90;;;;;;;17.87;59.93;101242.84;696853;28;92289;-61
2021/06/23 00:35:51;;;;;;;3.50;3.20;;;;;;;17.86;59.83;101241.16;699985;28;1004;-60
2021/06/23 00:36:12;;;;;;;3.70;3.35;;;;;;;17.84;60.10;101244.13;699538;28;23513;-61
2021/06/23 00:36:34;;;;;;;3.70;3.40;;;;;;;17.85;60.20;101242.22;699673;28;22372;-62
2021/06/23 00:36:57;;;;;;;3.30;3.10;;;;;;;17.83;60.14;101242.44;698701;28;43743;-62
2021/06/23 00:37:18;;;;;;;3.30;3.10;;;;;;;17.84;60.20;101244.13;697691;28;46332;-61
2021/06/23 00:37:39;;;;;;;3.72;3.30;;;;;;;17.83;60.25;101241.59;699722;28;23445;-62
2021/06/23 00:38:00;;;;;;;3.70;3.25;;;;;;;17.83;59.97;101242.44;699948;28;23477;-62
2021/06/23 00:38:23;;;;;;;3.70;3.40;;;;;;;17.82;60.25;101234.44;698626;28;46343;-61
2021/06/23 00:38:44;;;;;;;3.35;3.10;;;;;;;17.81;60.12;101243.72;698176;28;46428;-59
2021/06/23 00:39:05;;;;;;;3.65;3.35;;;;;;;17.80;60.14;101239.28;699183;28;7446;-62
2021/06/23 00:39:27;;;;;;;4.15;3.47;;;;;;;17.79;60.19;101241.19;694602;28;46867;-61
2021/06/23 00:39:49;;;;;;;3.50;3.20;;;;;;;17.78;60.13;101249.59;696598;28;21535;-61
2021/06/23 00:40:12;;;;;;;4.25;3.40;;;;;;;17.77;60.03;101247.91;695795;28;45263;-61
2021/06/23 00:40:33;;;;;;;4.10;3.47;;;;;;;17.76;60.17;101249.81;692912;28;69100;-61
2021/06/23 00:40:54;;;;;;;3.50;3.20;;;;;;;17.75;60.21;101245.38;696140;28;23411;-59
2021/06/23 00:41:18;;;;;;;4.90;3.60;;;;;;;17.75;60.18;101247.28;694125;28;45273;-61
2021/06/23 00:41:39;;;;;;;3.83;3.38;;;;;;;17.73;60.42;101247.50;693915;28;90514;-61
2021/06/23 00:42:01;;;;;;;3.60;3.30;;;;;;;17.72;60.37;101251.28;696786;28;23461;-62
2021/06/23 00:42:23;;;;;;;3.65;3.35;;;;;;;17.73;60.41;101246.69;696775;28;45246;-61
2021/06/23 00:42:45;;;;;;;3.60;3.30;;;;;;;17.73;60.15;101257.59;699443;28;22415;-61
2021/06/23 00:43:06;;;;;;;3.72;3.42;;;;;;;17.72;60.27;101255.91;698823;28;45015;-62
2021/06/23 00:43:28;;;;;;;5.38;3.42;;;;;;;17.71;60.19;101252.34;698078;28;46441;-61
2021/06/23 00:43:49;;;;;;;4.55;3.33;;;;;;;17.70;60.63;101253.38;699658;28;21319;-61
2021/06/23 00:44:13;;;;;;;3.88;3.40;;;;;;;17.70;60.29;101258.03;698159;28;46707;-61
2021/06/23 00:44:35;;;;;;;5.47;3.63;;;;;;;17.69;60.23;101254.44;697108;28;92277;-62
2021/06/23 00:44:56;;;;;;;4.35;3.30;;;;;;;17.71;60.32;101255.09;697817;28;44505;-61
2021/06/23 00:45:18;;;;;;;4.55;3.53;;;;;;;17.71;60.12;101259.69;699503;28;22437;-61
2021/06/23 00:45:40;;;;;;;3.65;3.35;;;;;;;17.71;60.24;101262.41;698415;28;1770;-60
2021/06/23 00:46:02;;;;;;;3.63;3.15;;;;;;;17.71;60.18;101260.53;694733;28;22405;-61
2021/06/23 00:46:24;;;;;;;5.65;3.40;;;;;;;17.71;60.22;101256.94;694045;28;70306;-61
2021/06/23 00:46:45;;;;;;;7.05;3.50;;;;;;;17.70;60.10;101260.75;693931;28;22761;-61
2021/06/23 00:47:06;;;;;;;5.50;3.40;;;;;;;17.68;60.43;101265.56;693160;28;23048;-61
2021/06/23 00:47:29;;;;;;;4.50;3.35;;;;;;;17.67;60.45;101258.44;692946;28;46337;-61
2021/06/23 00:47:53;;;;;;;4.82;3.47;;;;;;;17.67;60.38;101261.19;693454;28;42903;-59
2021/06/23 00:48:18;;;;;;;3.67;3.38;;;;;;;17.64;60.45;101270.63;688657;28;115969;-61
2021/06/23 00:48:40;;;;;;;4.60;3.65;;;;;;;17.62;60.43;101265.38;691553;28;80358;-62
2021/06/23 00:49:03;;;;;;;3.65;3.35;;;;;;;17.62;60.62;101275.47;695414;28;15126;-62
2021/06/23 00:49:40;;;;;;;3.83;3.47;;;;;;;17.60;60.63;101267.47;693500;28;80076;-61
2021/06/23 00:50:14;;;;;;;3.88;3.33;;;;;;;17.59;60.67;101268.53;695425;28;61179;-61
2021/06/23 00:50:42;;;;;;;4.15;3.40;;;;;;;17.55;60.62;101259.06;694214;28;129024;-61
2021/06/23 00:51:25;;;;;;;6.13;3.53;;;;;;;17.59;60.77;101262.22;688262;28;137670;-61
2021/06/23 00:51:53;;;;;;;3.72;3.33;;;;;;;17.59;60.74;101265.78;694669;28;133167;-60
2021/06/23 00:52:39;;;;;;;4.60;3.90;;;;;;;17.56;60.87;101259.91;691711;28;155599;-61
2021/06/23 00:53:14;;;;;;;4.07;3.55;;;;;;;17.54;60.65;101259.28;690938;28;135783;-61
2021/06/23 00:53:37;;;;;;;3.50;3.20;;;;;;;17.55;60.86;101264.53;692887;28;14267;-60
2021/06/23 00:53:59;;;;;;;3.40;3.15;;;;;;;17.56;61.00;101257.19;694138;28;1939;-61
2021/06/23 00:54:21;;;;;;;3.67;3.38;;;;;;;17.56;60.83;101259.91;691593;28;1180;-62
2021/06/23 00:54:48;;;;;;;5.13;3.60;;;;;;;17.57;60.95;101258.84;691841;28;2615;-61
2021/06/23 00:55:20;;;;;;;3.47;3.13;;;;;;;17.56;60.85;101260.75;688363;28;145530;-61
2021/06/23 00:55:41;;;;;;;4.43;3.40;;;;;;;17.58;61.06;101258.63;690711;28;100955;-61
2021/06/23 00:56:05;;;;;;;5.30;3.65;;;;;;;17.59;60.89;101254.88;691146;28;22499;-62
2021/06/23 00:56:29;;;;;;;5.72;3.70;;;;;;;17.60;60.92;101255.69;688886;28;90093;-62
2021/06/23 00:56:50;;;;;;;4.63;3.58;;;;;;;17.62;60.85;101265.38;689158;28;90368;-61
2021/06/23 00:57:11;;;;;;;6.53;3.65;;;;;;;17.60;60.88;101259.28;690399;28;46396;-61
2021/06/23 00:57:33;;;;;;;4.57;3.33;;;;;;;17.63;60.62;101266.19;692336;28;8219;-61
2021/06/23 00:57:56;;;;;;;4.00;3.42;;;;;;;17.61;60.67;101258.22;691759;28;21650;-61
2021/06/23 00:58:17;;;;;;;3.80;3.50;;;;;;;17.62;60.58;101259.06;692988;28;69505;-61
2021/06/23 00:58:38;;;;;;;3.60;3.30;;;;;;;17.65;60.60;101255.91;693491;28;22294;-61
2021/06/23 00:59:04;;;;;;;4.55;3.30;;;;;;;17.66;60.74;101263.03;692870;28;114858;-62
2021/06/23 00:59:27;;;;;;;3.60;3.30;;;;;;;17.67;60.72;101261.19;693944;28;67456;-60
2021/06/23 00:59:51;;;;;;;4.68;3.33;;;;;;;17.65;60.59;101267.69;694664;28;45247;-61
2021/06/23 01:00:13;;;;;;;3.60;3.30;;;;;;;17.66;60.57;101268.50;692427;28;84077;-61
2021/06/23 01:00:35;;;;;;;4.18;3.60;;;;;;;17.67;60.41;101261.19;694330;28;42834;-60
2021/06/23 01:00:58;;;;;;;3.90;3.38;;;;;;;17.67;60.52;101263.91;696694;28;917;-60
2021/06/23 01:01:19;;;;;;;4.40;3.22;;;;;;;17.67;60.44;101261.19;694595;28;32802;-61
2021/06/23 01:01:42;;;;;;;3.80;3.50;;;;;;;17.66;60.62;101263.03;693592;28;22376;-61
2021/06/23 01:02:04;;;;;;;3.80;3.50;;;;;;;17.65;60.36;101262.22;693477;28;69489;-61
2021/06/23 01:02:25;;;;;;;4.03;3.55;;;;;;;17.64;60.51;101257.78;694441;28;1705;-61
2021/06/23 01:02:49;;;;;;;5.05;3.92;;;;;;;17.64;60.47;101257.78;689891;28;46233;-62
2021/06/23 01:03:11;;;;;;;3.85;3.47;;;;;;;17.65;60.51;101261.38;687910;28;67118;-62
2021/06/23 01:03:35;;;;;;;3.58;3.28;;;;;;;17.65;60.27;101259.50;687695;28;105099;-62
2021/06/23 01:04:03;;;;;;;3.67;3.38;;;;;;;17.65;60.26;101253.19;688832;28;36485;-62
2021/06/23 01:04:26;;;;;;;3.88;3.58;;;;;;;17.65;60.39;101254.03;685756;28;138302;-61
2021/06/23 01:04:49;;;;;;;3.70;3.40;;;;;;;17.67;60.24;101247.53;688906;28;23472;-61
2021/06/23 01:05:11;;;;;;;3.45;3.15;;;;;;;17.67;60.24;101253.81;689225;28;67519;-63
2021/06/23 01:05:33;;;;;;;3.70;3.22;;;;;;;17.68;60.46;101249.19;690906;28;46464;-61
2021/06/23 01:05:56;;;;;;;4.28;3.80;;;;;;;17.69;60.05;101248.13;689122;28;50430;-61
2021/06/23 01:06:17;;;;;;;4.20;3.40;;;;;;;17.69;60.11;101254.44;690703;28;46268;-61
2021/06/23 01:06:39;;;;;;;3.63;3.33;;;;;;;17.70;60.34;101252.56;694308;28;22494;-62
2021/06/23 01:07:00;;;;;;;3.90;3.55;;;;;;;17.70;60.03;101258.03;696095;28;21543;-61
2021/06/23 01:07:22;;;;;;;3.65;3.35;;;;;;;17.70;60.03;101260.75;696301;28;47510;-62
2021/06/23 01:07:54;;;;;;;4.22;3.45;;;;;;;17.67;60.20;101259.28;696168;28;112558;-61
2021/06/23 01:08:16;;;;;;;4.10;3.70;;;;;;;17.68;59.95;101257.38;697549;28;67506;-61
2021/06/23 01:08:38;;;;;;;5.93;3.88;;;;;;;17.64;59.89;101259.69;695662;28;44369;-61
2021/06/23 01:09:00;;;;;;;4.15;3.50;;;;;;;17.62;59.97;101270.00;693673;28;21613;-61
2021/06/23 01:09:23;;;;;;;4.53;3.47;;;;;;;17.60;60.22;101264.75;689386;28;92106;-61
2021/06/23 01:09:45;;;;;;;4.28;3.58;;;;;;;17.58;60.16;101266.00;692058;28;22380;-61
2021/06/23 01:10:07;;;;;;;3.75;3.40;;;;;;;17.55;60.07;101261.78;692561;28;45121;-61
2021/06/23 01:10:34;;;;;;;4.10;3.60;;;;;;;17.52;60.11;101266.84;688430;28;138205;-62
2021/06/23 01:10:57;;;;;;;3.78;3.47;;;;;;;17.48;60.12;101264.53;688797;28;115283;-62
2021/06/23 01:11:19;;;;;;;4.22;3.50;;;;;;;17.45;60.11;101264.13;692433;28;39053;-61
2021/06/23 01:12:02;;;;;;;4.15;3.40;;;;;;;17.41;60.33;101262.84;692728;28;46291;-61
2021/06/23 01:12:57;;;;;;;5.90;3.58;;;;;;;17.35;60.43;101266.41;694215;28;135940;-62
2021/06/23 01:13:35;;;;;;;4.00;3.45;;;;;;;17.31;60.66;101259.72;693169;28;137647;-62
2021/06/23 01:14:01;;;;;;;3.90;3.50;;;;;;;17.28;60.73;101259.06;694384;28;137561;-63
2021/06/23 01:14:24;;;;;;;3.45;3.17;;;;;;;17.29;60.70;101268.09;695816;28;113588;-61
2021/06/23 01:14:45;;;;;;;4.40;3.20;;;;;;;17.29;61.03;101263.47;694883;28;67464;-62
2021/06/23 01:15:08;;;;;;;3.97;3.20;;;;;;;17.29;60.64;101262.66;697076;28;23465;-62
2021/06/23 01:15:29;;;;;;;4.55;3.40;;;;;;;17.31;60.98;101267.91;694746;28;70117;-62
2021/06/23 01:15:51;;;;;;;3.70;3.40;;;;;;;17.32;60.71;101267.69;696075;28;9923;-62
2021/06/23 01:16:13;;;;;;;4.38;3.45;;;;;;;17.34;60.61;101259.28;696358;28;21725;-62
2021/06/23 01:16:36;;;;;;;4.10;3.60;;;;;;;17.33;60.69;101261.16;697357;28;21519;-64
2021/06/23 01:16:59;;;;;;;5.57;3.63;;;;;;;17.32;60.81;101261.38;693800;28;92254;-62
2021/06/23 01:17:23;;;;;;;5.32;3.63;;;;;;;17.31;60.70;101260.53;693858;28;70225;-61
2021/06/23 01:17:47;;;;;;;3.75;3.45;;;;;;;17.32;60.50;101270.41;692562;28;92015;-62
2021/06/23 01:18:09;;;;;;;3.83;3.40;;;;;;;17.31;60.70;101265.16;694138;28;48349;-62
2021/06/23 01:18:34;;;;;;;5.30;3.40;;;;;;;17.30;60.70;101264.31;691399;28;46347;-62
2021/06/23 01:18:57;;;;;;;4.75;3.58;;;;;;;17.29;60.54;101257.19;688515;28;158815;-61
2021/06/23 01:19:21;;;;;;;4.40;3.58;;;;;;;17.28;60.68;101258.22;693881;28;67595;-61
2021/06/23 01:19:45;;;;;;;4.85;3.67;;;;;;;17.29;60.53;101262.66;690156;28;179445;-62
2021/06/23 01:20:09;;;;;;;4.35;3.90;;;;;;;17.27;60.58;101259.25;691406;28;69415;-61
2021/06/23 01:20:33;;;;;;;4.80;3.90;;;;;;;17.28;60.59;101258.22;693741;28;92283;-61
2021/06/23 01:20:55;;;;;;;5.35;3.83;;;;;;;17.27;60.76;101259.25;695021;28;67686;-61
2021/06/23 01:21:17;;;;;;;6.25;3.95;;;;;;;17.26;60.85;101258.44;695484;28;44335;-60
2021/06/23 01:21:38;;;;;;;7.13;3.90;;;;;;;17.27;60.97;101254.66;696344;28;21524;-61
2021/06/23 01:22:01;;;;;;;4.00;3.60;;;;;;;17.28;61.01;101256.31;696697;28;22421;-61
2021/06/23 01:22:24;;;;;;;3.92;3.63;;;;;;;17.28;60.71;101255.50;691259;28;115149;-62
2021/06/23 01:22:46;;;;;;;4.05;3.53;;;;;;;17.28;60.92;101260.94;691929;28;22403;-61
2021/06/23 01:23:07;;;;;;;4.40;3.92;;;;;;;17.28;60.73;101255.50;692195;28;46209;-61
2021/06/23 01:23:28;;;;;;;4.78;3.88;;;;;;;17.28;60.85;101255.50;695169;28;23382;-61
2021/06/23 01:23:50;;;;;;;4.90;4.10;;;;;;;17.27;60.68;101259.25;692838;28;1950;-61
2021/06/23 01:24:12;;;;;;;4.13;3.83;;;;;;;17.29;60.82;101254.47;687726;28;65922;-60
2021/06/23 01:24:33;;;;;;;4.32;3.75;;;;;;;17.28;60.76;101255.50;689776;28;23323;-62
2021/06/23 01:24:55;;;;;;;5.45;3.97;;;;;;;17.26;60.46;101255.72;691214;28;42113;-61
2021/06/23 01:25:16;;;;;;;4.32;4.03;;;;;;;17.24;60.62;101260.53;692641;28;23507;-59
2021/06/23 01:25:39;;;;;;;5.43;4.10;;;;;;;17.24;60.64;101260.53;691674;28;44367;-61
2021/06/23 01:26:00;;;;;;;4.35;3.88;;;;;;;17.24;60.89;101256.94;694655;28;45444;-61
2021/06/23 01:26:25;;;;;;;4.35;3.75;;;;;;;17.23;60.69;101260.75;696290;28;98215;-62
2021/06/23 01:26:47;;;;;;;5.10;3.90;;;;;;;17.21;60.74;101260.09;696986;28;42810;-62
2021/06/23 01:27:09;;;;;;;4.05;3.75;;;;;;;17.18;60.97;101263.25;697061;28;41557;-60
2021/06/23 01:27:31;;;;;;;5.40;3.90;;;;;;;17.17;60.87;101253.41;695012;28;44959;-62
2021/06/23 01:27:52;;;;;;;4.65;3.65;;;;;;;17.15;60.88;101266.38;694150;28;39464;-61
2021/06/23 01:28:13;;;;;;;4.32;3.70;;;;;;;17.13;60.94;101263.88;695352;28;23551;-62
2021/06/23 01:28:43;;;;;;;4.78;3.72;;;;;;;17.10;61.36;101264.31;688932;28;156868;-62
2021/06/23 01:29:08;;;;;;;5.50;3.88;;;;;;;17.09;61.22;101266.19;688104;28;138392;-62
2021/06/23 01:29:48;;;;;;;4.70;3.72;;;;;;;17.07;61.16;101273.75;688607;28;152775;-60
2021/06/23 01:30:29;;;;;;;5.05;4.03;;;;;;;17.05;61.37;101273.13;686020;28;135880;-62
2021/06/23 01:31:02;;;;;;;5.53;3.67;;;;;;;17.05;61.57;101288.63;689754;28;137949;-62
2021/06/23 01:31:26;;;;;;;5.18;3.80;;;;;;;17.04;61.60;101290.53;691930;28;104040;-62
2021/06/23 01:31:49;;;;;;;4.43;4.05;;;;;;;17.01;61.10;101293.66;696548;28;21573;-62
2021/06/23 01:32:10;;;;;;;4.70;4.30;;;;;;;17.02;61.51;101297.22;695256;28;1098;-62
2021/06/23 01:32:32;;;;;;;4.60;4.18;;;;;;;16.99;61.29;101295.78;697559;28;7695;-62
2021/06/23 01:32:54;;;;;;;4.72;4.13;;;;;;;16.98;61.39;101299.53;694056;28;29032;-62
2021/06/23 01:33:15;;;;;;;4.93;4.30;;;;;;;16.99;61.49;101294.91;690108;28;41898;-62
2021/06/23 01:33:38;;;;;;;5.32;4.20;;;;;;;17.01;61.53;101306.47;689127;28;28473;-62
2021/06/23 01:34:00;;;;;;;7.13;4.68;;;;;;;17.01;61.17;101304.59;687370;28;43288;-61
2021/06/23 01:34:21;;;;;;;5.85;4.55;;;;;;;17.04;61.47;101295.97;689674;28;46484;-62
2021/06/23 01:34:43;;;;;;;4.80;3.83;;;;;;;17.06;61.29;101306.69;691294;28;20860;-62
2021/06/23 01:35:06;;;;;;;4.55;3.88;;;;;;;17.06;61.20;101301.25;686522;28;22366;-62
2021/06/23 01:35:27;;;;;;;4.22;3.72;;;;;;;17.05;61.20;101294.94;685757;28;70292;-62
2021/06/23 01:35:49;;;;;;;4.35;3.90;;;;;;;17.06;61.03;101298.50;690552;28;15995;-62
2021/06/23 01:36:11;;;;;;;5.38;4.38;;;;;;;17.08;61.20;101288.22;691780;28;1235;-61
2021/06/23 01:36:34;;;;;;;6.43;4.05;;;;;;;17.07;61.51;101289.28;691148;28;1171;-61
2021/06/23 01:36:56;;;;;;;5.18;3.72;;;;;;;17.06;61.30;101291.16;691697;28;2829;-62
2021/06/23 01:37:19;;;;;;;4.13;3.73;;;;;;;17.07;61.47;101284.66;692656;28;43705;-62
2021/06/23 01:37:40;;;;;;;5.53;3.85;;;;;;;17.08;61.28;101275.44;694050;28;50598;-62
2021/06/23 01:38:03;;;;;;;5.03;3.80;;;;;;;17.09;61.22;101271.63;694294;28;21514;-62
2021/06/23 01:38:26;;;;;;;4.63;3.67;;;;;;;17.09;61.23;101279.00;692214;28;92241;-62
2021/06/23 01:38:47;;;;;;;4.40;3.53;;;;;;;17.10;61.45;101272.50;694878;28;45246;-62
2021/06/23 01:39:09;;;;;;;3.97;3.60;;;;;;;17.13;61.34;101274.78;692470;28;46338;-62
2021/06/23 01:39:36;;;;;;;5.47;3.70;;;;;;;17.14;61.58;101270.19;686428;28;115577;-61
2021/06/23 01:39:58;;;;;;;4.28;3.88;;;;;;;17.15;61.29;101269.97;690620;28;70173;-62
2021/06/23 01:40:19;;;;;;;4.88;3.90;;;;;;;17.16;61.21;101260.72;691592;28;45322;-62
2021/06/23 01:40:41;;;;;;;5.60;3.88;;;;;;;17.18;61.36;101266.84;693614;28;22399;-62
2021/06/23 01:41:03;;;;;;;4.57;3.80;;;;;;;17.19;61.20;101262.19;692266;28;45341;-62
2021/06/23 01:41:24;;;;;;;4.25;3.88;;;;;;;17.21;61.19;101265.56;692874;28;45836;-62
2021/06/23 01:41:45;;;;;;;4.57;4.18;;;;;;;17.22;61.05;101265.34;696131;28;22480;-62
2021/06/23 01:42:08;;;;;;;4.10;3.80;;;;;;;17.22;61.01;101268.06;696887;28;5561;-62
2021/06/23 01:42:30;;;;;;;4.22;3.83;;;;;;;17.20;60.99;101261.16;696122;28;22203;-60
2021/06/23 01:42:52;;;;;;;4.47;4.07;;;;;;;17.23;60.92;101266.22;695356;28;47556;-62
2021/06/23 01:43:14;;;;;;;4.15;3.72;;;;;;;17.22;60.89;101267.25;692636;28;69612;-62
2021/06/23 01:43:35;;;;;;;6.32;4.25;;;;;;;17.21;61.10;101266.41;696572;28;23489;-62
2021/06/23 01:44:00;;;;;;;5.93;3.63;;;;;;;17.20;60.90;101263.91;689281;28;114950;-62
2021/06/23 01:44:22;;;;;;;4.03;3.67;;;;;;;17.19;61.18;101270.38;692019;28;46441;-62
2021/06/23 01:44:44;;;;;;;4.30;3.90;;;;;;;17.18;61.28;101274.16;694494;28;40849;-62
2021/06/23 01:45:06;;;;;;;5.90;3.83;;;;;;;17.15;61.36;101272.72;696325;28;18635;-62
2021/06/23 01:45:28;;;;;;;4.45;3.70;;;;;;;17.14;61.12;101276.47;692912;28;69555;-62
2021/06/23 01:45:49;;;;;;;3.83;3.50;;;;;;;17.12;61.31;101267.66;693051;28;21534;-62
2021/06/23 01:46:12;;;;;;;5.10;3.80;;;;;;;17.09;61.17;101270.81;690787;28;69588;-62
2021/06/23 01:46:33;;;;;;;4.00;3.53;;;;;;;17.07;61.19;101279.19;691310;28;42696;-63
2021/06/23 01:46:55;;;;;;;5.53;4.13;;;;;;;17.05;61.40;101274.97;691820;28;23430;-61
2021/06/23 01:47:16;;;;;;;4.70;4.10;;;;;;;17.02;61.65;101269.94;692579;28;23490;-62
2021/06/23 01:47:37;;;;;;;4.00;3.70;;;;;;;17.00;61.45;101277.50;691805;28;34685;-61
2021/06/23 01:47:59;;;;;;;4.20;3.88;;;;;;;16.98;61.66;101269.53;695543;28;22505;-60